createdAt,value
2019-06-27T00:01:23.052Z,0.30
2019-06-27T00:04:18.279Z,0.50
2019-06-27T00:07:22.399Z,0.50
2019-06-27T00:10:16.832Z,0.37
2019-06-27T00:13:18.630Z,0.37
2019-06-27T00:16:12.625Z,0.40
2019-06-27T00:19:15.886Z,0.40
2019-06-27T00:22:10.114Z,0.23
2019-06-27T00:25:12.006Z,0.50
2019-06-27T00:28:05.915Z,0.70
2019-06-27T00:31:14.659Z,0.40
2019-06-27T00:34:10.692Z,0.30
2019-06-27T00:37:13.386Z,0.33
2019-06-27T00:40:06.820Z,0.53
2019-06-27T00:43:08.794Z,0.30
2019-06-27T00:46:02.790Z,0.43
2019-06-27T00:49:03.722Z,0.30
2019-06-27T00:52:00.940Z,0.40
2019-06-27T00:55:02.693Z,0.43
2019-06-27T00:57:56.832Z,0.30
2019-06-27T01:00:58.745Z,0.57
2019-06-27T01:03:53.827Z,0.40
2019-06-27T01:06:57.735Z,0.40
2019-06-27T01:10:05.615Z,0.37
2019-06-27T01:13:07.703Z,0.80
2019-06-27T01:16:02.163Z,0.60
2019-06-27T01:19:10.883Z,0.33
2019-06-27T01:22:05.574Z,0.40
2019-06-27T01:25:09.878Z,0.40
2019-06-27T01:28:04.191Z,0.40
2019-06-27T01:31:05.817Z,0.23
2019-06-27T01:34:00.632Z,0.30
2019-06-27T01:37:02.278Z,0.40
2019-06-27T01:39:59.697Z,0.30
2019-06-27T01:43:01.220Z,0.20
2019-06-27T01:45:57.513Z,0.40
2019-06-27T01:48:59.543Z,0.50
2019-06-27T01:51:53.543Z,0.40
2019-06-27T01:54:55.119Z,0.30
2019-06-27T01:57:48.690Z,0.43
2019-06-27T02:00:51.436Z,0.40
2019-06-27T02:03:46.011Z,0.30
2019-06-27T02:06:47.209Z,0.30
2019-06-27T02:09:45.407Z,0.40
2019-06-27T02:12:46.285Z,0.33
2019-06-27T02:15:40.042Z,0.60
2019-06-27T02:18:41.440Z,0.30
2019-06-27T02:21:36.698Z,0.30
2019-06-27T02:24:38.200Z,0.43
2019-06-27T02:27:31.861Z,0.30
2019-06-27T02:30:40.533Z,0.43
2019-06-27T02:33:34.818Z,0.50
2019-06-27T02:36:36.176Z,0.27
2019-06-27T02:39:30.627Z,0.57
2019-06-27T02:42:33.730Z,0.30
2019-06-27T02:45:28.917Z,0.30
2019-06-27T02:48:32.022Z,0.37
2019-06-27T02:51:26.746Z,0.30
2019-06-27T02:54:28.367Z,0.30
2019-06-27T02:57:22.456Z,0.40
2019-06-27T03:00:24.282Z,0.20
2019-06-27T03:03:18.291Z,0.40
2019-06-27T03:06:22.709Z,0.40
2019-06-27T03:09:28.722Z,0.30
2019-06-27T03:12:32.092Z,0.33
2019-06-27T03:15:33.785Z,0.30
2019-06-27T03:18:27.803Z,0.40
2019-06-27T03:21:23.210Z,0.30
2019-06-27T03:24:23.976Z,0.30
2019-06-27T03:27:25.054Z,0.30
2019-06-27T03:30:19.499Z,0.30
2019-06-27T03:33:13.139Z,0.50
2019-06-27T03:36:16.158Z,0.43
2019-06-27T03:39:09.841Z,0.30
2019-06-27T03:42:11.081Z,0.20
2019-06-27T03:45:15.870Z,0.30
2019-06-27T03:48:08.181Z,0.40
2019-06-27T03:51:02.117Z,0.23
2019-06-27T03:54:02.543Z,0.20
2019-06-27T03:56:56.699Z,0.20
2019-06-27T03:59:57.690Z,0.40
2019-06-27T04:02:58.489Z,0.20
2019-06-27T04:05:52.351Z,0.30
2019-06-27T04:08:46.754Z,0.40
2019-06-27T04:11:51.145Z,0.17
2019-06-27T04:14:49.974Z,0.30
2019-06-27T04:17:59.877Z,0.50
2019-06-27T04:20:55.394Z,0.43
2019-06-27T04:23:57.581Z,0.20
2019-06-27T04:26:51.341Z,0.33
2019-06-27T04:29:54.779Z,0.40
2019-06-27T04:33:04.359Z,0.20
2019-06-27T04:36:06.640Z,0.20
2019-06-27T04:39:01.390Z,0.47
2019-06-27T04:42:02.998Z,0.30
2019-06-27T04:44:56.694Z,0.27
2019-06-27T04:48:00.154Z,0.57
2019-06-27T04:50:57.031Z,0.57
2019-06-27T04:53:58.049Z,0.47
2019-06-27T04:56:52.899Z,0.40
2019-06-27T04:59:57.246Z,0.30
2019-06-27T05:02:51.498Z,0.43
2019-06-27T05:05:52.897Z,0.30
2019-06-27T05:08:47.295Z,0.53
2019-06-27T05:11:51.776Z,0.40
2019-06-27T05:14:48.596Z,0.30
2019-06-27T05:17:52.843Z,0.70
2019-06-27T05:20:53.986Z,0.40
2019-06-27T05:23:54.082Z,0.50
2019-06-27T05:26:49.032Z,0.40
2019-06-27T05:30:08.190Z,0.40
2019-06-27T05:33:03.936Z,0.40
2019-06-27T05:36:04.780Z,0.30
2019-06-27T05:38:58.584Z,0.30
2019-06-27T05:41:59.352Z,0.50
2019-06-27T05:44:53.337Z,0.40
2019-06-27T05:48:01.130Z,0.53
2019-06-27T05:50:59.990Z,0.37
2019-06-27T05:54:06.983Z,0.47
2019-06-27T05:57:00.804Z,0.47
2019-06-27T06:00:01.995Z,0.30
2019-06-27T06:02:55.957Z,0.40
2019-06-27T06:05:57.390Z,0.67
2019-06-27T06:08:59.338Z,0.50
2019-06-27T06:12:02.516Z,0.30
2019-06-27T06:15:00.462Z,0.40
2019-06-27T06:18:04.392Z,0.30
2019-06-27T06:21:16.318Z,0.30
2019-06-27T06:24:17.864Z,0.40
2019-06-27T06:27:16.578Z,0.60
2019-06-27T06:30:20.047Z,0.30
2019-06-27T06:33:19.952Z,0.40
2019-06-27T06:36:21.965Z,0.43
2019-06-27T06:39:16.433Z,0.40
2019-06-27T06:42:17.680Z,0.50
2019-06-27T06:45:12.287Z,0.30
2019-06-27T06:48:15.058Z,0.40
2019-06-27T06:51:08.718Z,0.60
2019-06-27T06:54:09.732Z,0.60
2019-06-27T06:57:04.363Z,0.63
2019-06-27T07:00:06.442Z,0.57
2019-06-27T07:03:00.107Z,0.40
2019-06-27T07:06:01.635Z,0.50
2019-06-27T07:08:56.123Z,0.40
2019-06-27T07:11:57.139Z,0.43
2019-06-27T07:14:52.982Z,0.50
2019-06-27T07:17:55.843Z,0.40
2019-06-27T07:20:50.040Z,0.20
2019-06-27T07:23:51.549Z,0.30
2019-06-27T07:26:45.799Z,0.40
2019-06-27T07:29:51.029Z,0.40
2019-06-27T07:32:45.545Z,0.40
2019-06-27T07:35:52.301Z,0.87
2019-06-27T07:38:49.505Z,0.70
2019-06-27T07:41:53.443Z,0.70
2019-06-27T07:44:47.056Z,0.87
2019-06-27T07:47:48.487Z,1.10
2019-06-27T07:50:42.887Z,0.73
2019-06-27T07:53:52.937Z,0.97
2019-06-27T07:56:46.654Z,1.00
2019-06-27T07:59:47.854Z,0.90
2019-06-27T08:02:42.180Z,1.00
2019-06-27T08:05:49.440Z,0.90
2019-06-27T08:08:55.190Z,1.30
2019-06-27T08:12:03.500Z,1.10
2019-06-27T08:14:56.684Z,1.10
2019-06-27T08:17:59.983Z,1.13
2019-06-27T08:20:53.886Z,1.30
2019-06-27T08:23:55.392Z,1.20
2019-06-27T08:26:57.226Z,1.20
2019-06-27T08:29:52.057Z,1.50
2019-06-27T08:32:48.788Z,0.93
2019-06-27T08:35:53.193Z,1.20
2019-06-27T08:39:00.544Z,1.00
2019-06-27T08:42:01.488Z,1.50
2019-06-27T08:44:55.332Z,1.10
2019-06-27T08:48:01.984Z,1.17
2019-06-27T08:50:55.938Z,1.20
2019-06-27T08:53:58.921Z,1.40
2019-06-27T08:56:52.583Z,1.27
2019-06-27T08:59:55.115Z,1.40
2019-06-27T09:02:48.828Z,1.13
2019-06-27T09:05:49.982Z,1.33
2019-06-27T09:08:44.714Z,1.70
2019-06-27T09:11:45.616Z,1.57
2019-06-27T09:14:40.320Z,1.20
2019-06-27T09:17:41.679Z,1.00
2019-06-27T09:20:36.176Z,1.13
2019-06-27T09:23:37.712Z,1.20
2019-06-27T09:26:32.615Z,1.20
2019-06-27T09:29:42.943Z,1.50
2019-06-27T09:32:36.965Z,1.20
2019-06-27T09:35:40.790Z,1.43
2019-06-27T09:38:35.317Z,1.27
2019-06-27T09:41:38.132Z,1.20
2019-06-27T09:44:34.246Z,1.20
2019-06-27T09:47:36.050Z,1.20
2019-06-27T09:50:32.755Z,1.17
2019-06-27T09:53:33.750Z,1.40
2019-06-27T09:56:27.463Z,1.30
2019-06-27T09:59:31.159Z,1.30
2019-06-27T10:02:40.265Z,0.93
2019-06-27T10:05:27.930Z,1.20
2019-06-27T10:08:21.725Z,1.13
2019-06-27T10:11:23.252Z,0.90
2019-06-27T10:14:17.774Z,1.13
2019-06-27T10:17:19.210Z,1.10
2019-06-27T10:20:14.379Z,1.10
2019-06-27T10:23:15.612Z,1.13
2019-06-27T10:26:13.078Z,1.13
2019-06-27T10:29:16.448Z,0.90
2019-06-27T10:32:23.288Z,1.10
2019-06-27T10:35:27.487Z,1.23
2019-06-27T10:38:21.244Z,1.40
2019-06-27T10:41:25.716Z,1.00
2019-06-27T10:44:23.289Z,1.73
2019-06-27T10:47:24.904Z,1.50
2019-06-27T10:50:18.820Z,1.07
2019-06-27T10:53:20.256Z,1.20
2019-06-27T10:56:14.733Z,1.07
2019-06-27T10:59:17.077Z,1.00
2019-06-27T11:02:15.610Z,1.20
2019-06-27T11:05:17.769Z,1.10
2019-06-27T11:08:12.320Z,1.10
2019-06-27T11:11:12.727Z,0.83
2019-06-27T11:14:09.189Z,0.90
2019-06-27T11:17:10.756Z,1.10
2019-06-27T11:20:04.590Z,1.13
2019-06-27T11:23:07.867Z,1.10
2019-06-27T11:26:04.816Z,1.10
2019-06-27T11:29:06.288Z,1.17
2019-06-27T11:32:05.351Z,1.00
2019-06-27T11:35:06.612Z,0.90
2019-06-27T11:38:02.500Z,0.80
2019-06-27T11:41:02.962Z,0.80
2019-06-27T11:43:56.652Z,0.83
2019-06-27T11:46:57.469Z,0.90
2019-06-27T11:49:51.889Z,0.60
2019-06-27T11:52:52.615Z,0.80
2019-06-27T11:55:46.354Z,0.60
2019-06-27T11:58:47.993Z,0.80
2019-06-27T12:01:43.985Z,0.70
2019-06-27T12:04:45.627Z,1.00
2019-06-27T12:07:41.988Z,1.10
2019-06-27T12:10:43.115Z,0.73
2019-06-27T12:13:39.115Z,1.00
2019-06-27T12:16:42.842Z,0.83
2019-06-27T12:19:37.318Z,0.60
2019-06-27T12:22:42.088Z,0.70
2019-06-27T12:25:36.723Z,0.70
2019-06-27T12:28:38.371Z,0.70
2019-06-27T12:31:32.714Z,0.80
2019-06-27T12:34:34.389Z,0.60
2019-06-27T12:37:39.872Z,0.60
2019-06-27T12:40:35.605Z,0.80
2019-06-27T12:43:43.545Z,0.73
2019-06-27T12:46:46.376Z,0.70
2019-06-27T12:50:00.345Z,0.67
2019-06-27T12:52:43.907Z,0.93
2019-06-27T12:55:38.364Z,0.70
2019-06-27T12:58:41.035Z,0.70
2019-06-27T13:01:36.547Z,0.70
2019-06-27T13:04:38.468Z,0.50
2019-06-27T13:07:35.657Z,0.50
2019-06-27T13:10:45.078Z,0.73
2019-06-27T13:13:38.293Z,0.73
2019-06-27T13:16:40.241Z,0.67
2019-06-27T13:19:39.713Z,0.63
2019-06-27T13:22:42.665Z,0.80
2019-06-27T13:25:38.519Z,0.87
2019-06-27T13:28:38.662Z,0.90
2019-06-27T13:31:36.211Z,1.20
2019-06-27T13:34:40.719Z,1.00
2019-06-27T13:37:38.864Z,1.00
2019-06-27T13:40:40.405Z,0.70
2019-06-27T13:43:38.701Z,0.70
2019-06-27T13:46:42.642Z,0.80
2019-06-27T13:49:40.680Z,0.57
2019-06-27T13:52:41.855Z,1.00
2019-06-27T13:55:36.335Z,0.63
2019-06-27T13:58:40.543Z,0.70
2019-06-27T14:01:34.606Z,0.90
2019-06-27T14:04:38.712Z,1.00
2019-06-27T14:07:35.665Z,0.70
2019-06-27T14:10:38.828Z,1.10
2019-06-27T14:13:36.409Z,0.60
2019-06-27T14:16:38.437Z,1.20
2019-06-27T14:19:32.398Z,0.90
2019-06-27T14:22:37.505Z,1.00
2019-06-27T14:25:33.840Z,0.90
2019-06-27T14:28:36.456Z,0.80
2019-06-27T14:31:31.091Z,0.60
2019-06-27T14:34:32.904Z,0.80
2019-06-27T14:37:26.547Z,0.77
2019-06-27T14:40:29.148Z,1.00
2019-06-27T14:43:38.024Z,0.80
2019-06-27T14:46:39.881Z,0.73
2019-06-27T14:49:34.972Z,1.00
2019-06-27T14:52:37.310Z,0.80
2019-06-27T14:55:32.222Z,0.60
2019-06-27T14:58:33.786Z,1.07
2019-06-27T15:01:32.466Z,1.20
2019-06-27T15:04:36.475Z,1.20
2019-06-27T15:07:32.368Z,0.73
2019-06-27T15:10:35.673Z,0.90
2019-06-27T15:13:35.722Z,0.93
2019-06-27T15:16:39.826Z,1.20
2019-06-27T15:19:37.208Z,1.00
2019-06-27T15:22:39.834Z,0.90
2019-06-27T15:25:33.771Z,1.00
2019-06-27T15:28:35.508Z,1.20
2019-06-27T15:31:29.873Z,1.00
2019-06-27T15:34:35.624Z,1.20
2019-06-27T15:37:29.524Z,1.00
2019-06-27T15:40:30.400Z,1.10
2019-06-27T15:43:24.150Z,1.33
2019-06-27T15:46:25.786Z,1.63
2019-06-27T15:49:19.823Z,1.43
2019-06-27T15:52:21.286Z,1.30
2019-06-27T15:55:15.662Z,1.23
2019-06-27T15:58:17.802Z,1.17
2019-06-27T16:01:20.388Z,1.50
2019-06-27T16:04:30.780Z,1.60
2019-06-27T16:07:16.233Z,1.30
2019-06-27T16:10:21.866Z,1.23
2019-06-27T16:13:19.322Z,1.20
2019-06-27T16:16:21.024Z,1.30
2019-06-27T16:19:16.596Z,1.23
2019-06-27T16:22:17.164Z,1.17
2019-06-27T16:25:11.980Z,1.30
2019-06-27T16:28:13.045Z,1.07
2019-06-27T16:31:08.591Z,1.60
2019-06-27T16:34:12.630Z,1.33
2019-06-27T16:37:06.422Z,0.83
2019-06-27T16:40:11.692Z,1.30
2019-06-27T16:43:06.591Z,1.10
2019-06-27T16:46:07.671Z,0.90
2019-06-27T16:49:08.517Z,1.03
2019-06-27T16:52:02.157Z,1.10
2019-06-27T16:54:56.335Z,0.80
2019-06-27T16:58:00.094Z,0.97
2019-06-27T17:01:09.035Z,1.00
2019-06-27T17:04:13.455Z,1.23
2019-06-27T17:07:07.113Z,1.00
2019-06-27T17:10:09.542Z,0.87
2019-06-27T17:13:03.868Z,1.10
2019-06-27T17:16:07.521Z,1.13
2019-06-27T17:19:01.449Z,1.63
2019-06-27T17:22:03.003Z,1.00
2019-06-27T17:28:18.410Z,1.10
2019-06-27T17:31:13.298Z,1.30
2019-06-27T17:34:14.969Z,1.23
2019-06-27T17:37:09.280Z,1.27
2019-06-27T17:40:12.620Z,1.30
2019-06-27T17:43:06.398Z,1.10
2019-06-27T17:46:08.829Z,1.27
2019-06-27T17:49:06.301Z,1.30
2019-06-27T17:52:07.911Z,0.90
2019-06-27T17:55:02.679Z,1.10
2019-06-27T17:58:08.544Z,1.30
2019-06-27T18:01:04.012Z,1.20
2019-06-27T18:04:08.574Z,1.20
2019-06-27T18:07:13.595Z,0.93
2019-06-27T18:10:05.604Z,0.90
2019-06-27T18:13:00.962Z,1.80
2019-06-27T18:16:03.357Z,1.50
2019-06-27T18:19:00.735Z,1.67
2019-06-27T18:22:00.928Z,1.37
2019-06-27T18:25:01.875Z,1.30
2019-06-27T18:28:03.051Z,1.53
2019-06-27T18:30:58.740Z,1.20
2019-06-27T18:33:59.957Z,1.30
2019-06-27T18:36:53.622Z,1.33
2019-06-27T18:39:54.704Z,1.57
2019-06-27T18:42:48.065Z,1.40
2019-06-27T18:45:58.540Z,1.80
2019-06-27T18:48:53.004Z,1.60
2019-06-27T18:51:53.564Z,1.40
2019-06-27T18:55:01.100Z,1.37
2019-06-27T18:58:04.679Z,1.40
2019-06-27T19:01:00.163Z,1.50
2019-06-27T19:04:01.154Z,1.57
2019-06-27T19:06:56.456Z,1.47
2019-06-27T19:09:59.350Z,1.60
2019-06-27T19:12:55.682Z,1.63
2019-06-27T19:15:58.971Z,1.90
2019-06-27T19:19:02.689Z,1.70
2019-06-27T19:22:14.972Z,1.63
2019-06-27T19:25:10.251Z,1.67
2019-06-27T19:28:13.568Z,1.50
2019-06-27T19:31:07.133Z,1.40
2019-06-27T19:34:08.075Z,1.43
2019-06-27T19:37:03.742Z,1.40
2019-06-27T19:40:04.935Z,1.20
2019-06-27T19:42:58.973Z,1.23
2019-06-27T19:45:59.872Z,1.20
2019-06-27T19:48:53.662Z,1.50
2019-06-27T19:51:54.620Z,1.30
2019-06-27T19:54:48.989Z,1.57
2019-06-27T19:57:49.898Z,1.23
2019-06-27T20:00:43.891Z,1.30
2019-06-27T20:03:45.134Z,1.20
2019-06-27T20:06:38.975Z,1.50
2019-06-27T20:09:40.862Z,1.20
2019-06-27T20:12:38.243Z,1.30
2019-06-27T20:15:39.731Z,1.33
2019-06-27T20:18:33.977Z,1.63
2019-06-27T20:21:37.519Z,1.70
2019-06-27T20:24:31.561Z,1.60
2019-06-27T20:27:35.997Z,1.20
2019-06-27T20:30:29.888Z,1.40
2019-06-27T20:33:30.641Z,1.50
2019-06-27T20:36:24.806Z,1.40
2019-06-27T20:39:26.663Z,1.50
2019-06-27T20:42:20.457Z,1.33
2019-06-27T20:45:21.984Z,1.50
2019-06-27T20:48:16.591Z,1.70
2019-06-27T20:51:18.350Z,1.50
2019-06-27T20:54:15.926Z,1.40
2019-06-27T20:57:17.289Z,1.50
2019-06-27T21:00:17.809Z,1.73
2019-06-27T21:03:14.422Z,1.50
2019-06-27T21:06:10.267Z,1.50
2019-06-27T21:09:14.632Z,1.30
2019-06-27T21:12:11.784Z,1.20
2019-06-27T21:15:14.115Z,1.10
2019-06-27T21:18:33.841Z,1.20
2019-06-27T21:21:37.430Z,1.17
2019-06-27T21:24:30.999Z,1.63
2019-06-27T21:27:32.569Z,1.10
2019-06-27T21:30:28.672Z,1.00
2019-06-27T21:33:30.499Z,1.30
2019-06-27T21:36:25.272Z,1.00
2019-06-27T21:39:26.347Z,1.10
2019-06-27T21:42:23.937Z,1.10
2019-06-27T21:45:25.899Z,1.00
2019-06-27T21:48:20.223Z,1.20
2019-06-27T21:51:21.897Z,0.90
2019-06-27T21:54:18.418Z,0.80
2019-06-27T21:57:19.957Z,0.90
2019-06-27T22:00:16.424Z,1.20
2019-06-27T22:03:18.407Z,1.10
2019-06-27T22:06:19.080Z,0.60
2019-06-27T22:09:25.091Z,0.80
2019-06-27T22:12:17.973Z,0.90
2019-06-27T22:15:18.692Z,0.97
2019-06-27T22:18:12.597Z,0.80
2019-06-27T22:21:14.361Z,0.70
2019-06-27T22:24:09.627Z,0.67
2019-06-27T22:27:11.180Z,0.70
2019-06-27T22:30:08.576Z,1.07
2019-06-27T22:33:12.884Z,1.03
2019-06-27T22:36:06.567Z,1.00
2019-06-27T22:39:39.574Z,1.00
2019-06-27T22:42:39.274Z,0.80
2019-06-27T22:45:58.645Z,0.80
2019-06-27T22:48:51.392Z,0.70
2019-06-27T22:52:02.386Z,0.70
2019-06-27T22:55:07.024Z,0.53
2019-06-27T22:58:07.648Z,0.70
2019-06-27T23:01:02.253Z,0.80
2019-06-27T23:04:03.592Z,1.00
2019-06-27T23:06:59.428Z,1.00
2019-06-27T23:10:01.992Z,0.60
2019-06-27T23:12:58.600Z,0.73
2019-06-27T23:15:59.814Z,1.17
2019-06-27T23:18:55.138Z,0.63
2019-06-27T23:21:56.308Z,0.70
2019-06-27T23:24:49.647Z,0.90
2019-06-27T23:27:52.190Z,0.80
2019-06-27T23:30:46.878Z,0.57
2019-06-27T23:33:49.330Z,0.67
2019-06-27T23:36:42.836Z,0.97
2019-06-27T23:39:43.977Z,0.80
2019-06-27T23:42:40.497Z,1.00
2019-06-27T23:45:43.940Z,0.67
2019-06-27T23:48:37.750Z,0.80
2019-06-27T23:51:38.695Z,1.10
2019-06-27T23:54:33.650Z,0.77
2019-06-27T23:57:38.632Z,0.73
